METARs

EEEI - Ämari Air Base

EEEI 230750Z 33005KT 270V010 9999 FEW026CB SCT032 19/11 Q1019 NO

EEKA - Kärdla

EEKA 220750Z 33008KT 9999 BKN013 16/11 Q1020

EEKE - Kuressaare

EEKE 230650Z AUTO VRB03KT 9999NDV NCD 19/11 Q1019

EEPU - Pärnu

EEPU 230650Z 00000KT CAVOK 19/13 Q1018

EETN - Lennart Meri Tallinn

EETN 230750Z 33007KT 9999 FEW018 18/11 Q1018 NOSIG

EETU - Tartu

EETU 230750Z AUTO 29007KT 240V340 9999 FEW027/// 19/11 Q1018

Sign In

ATC Booking

currently no ATC Bookings...